sensor_id;sensor_type;location;lat;lon;timestamp;temperature;humidity
49765;DHT22;35657;51.204;-4.130;2022-07-22T00:01:13;18.70;99.90
49765;DHT22;35657;51.204;-4.130;2022-07-22T00:03:39;18.80;99.90
49765;DHT22;35657;51.204;-4.130;2022-07-22T00:06:05;19.00;99.90
49765;DHT22;35657;51.204;-4.130;2022-07-22T00:08:31;19.00;99.90
49765;DHT22;35657;51.204;-4.130;2022-07-22T00:10:57;19.10;99.90
49765;DHT22;35657;51.204;-4.130;2022-07-22T00:13:23;19.10;99.90
49765;DHT22;35657;51.204;-4.130;2022-07-22T00:15:49;19.20;99.90
49765;DHT22;35657;51.204;-4.130;2022-07-22T00:18:15;19.00;99.90
49765;DHT22;35657;51.204;-4.130;2022-07-22T00:20:40;18.80;99.90
49765;DHT22;35657;51.204;-4.130;2022-07-22T00:23:07;18.80;99.90
49765;DHT22;35657;51.204;-4.130;2022-07-22T00:25:33;18.70;99.90
49765;DHT22;35657;51.204;-4.130;2022-07-22T00:27:58;18.70;99.90
49765;DHT22;35657;51.204;-4.130;2022-07-22T00:30:24;18.70;99.90
49765;DHT22;35657;51.204;-4.130;2022-07-22T00:32:50;18.60;99.90
49765;DHT22;35657;51.204;-4.130;2022-07-22T00:35:16;18.70;99.90
49765;DHT22;35657;51.204;-4.130;2022-07-22T00:37:41;18.70;99.90
49765;DHT22;35657;51.204;-4.130;2022-07-22T00:40:08;18.70;99.90
49765;DHT22;35657;51.204;-4.130;2022-07-22T00:42:33;18.80;99.90
49765;DHT22;35657;51.204;-4.130;2022-07-22T00:45:00;19.00;99.90
49765;DHT22;35657;51.204;-4.130;2022-07-22T00:47:26;19.00;99.90
49765;DHT22;35657;51.204;-4.130;2022-07-22T00:49:51;19.10;99.90
49765;DHT22;35657;51.204;-4.130;2022-07-22T00:52:19;19.10;99.90
49765;DHT22;35657;51.204;-4.130;2022-07-22T00:54:45;19.20;99.90
49765;DHT22;35657;51.204;-4.130;2022-07-22T00:57:10;19.10;99.90
49765;DHT22;35657;51.204;-4.130;2022-07-22T00:59:37;19.00;99.90
49765;DHT22;35657;51.204;-4.130;2022-07-22T01:02:03;18.90;99.90
49765;DHT22;35657;51.204;-4.130;2022-07-22T01:04:29;18.80;99.90
49765;DHT22;35657;51.204;-4.130;2022-07-22T01:06:54;18.80;99.90
49765;DHT22;35657;51.204;-4.130;2022-07-22T01:09:20;18.80;99.90
49765;DHT22;35657;51.204;-4.130;2022-07-22T01:11:46;18.80;99.90
49765;DHT22;35657;51.204;-4.130;2022-07-22T01:14:12;18.80;99.90
49765;DHT22;35657;51.204;-4.130;2022-07-22T01:16:38;18.80;99.90
49765;DHT22;35657;51.204;-4.130;2022-07-22T01:19:05;18.80;99.90
49765;DHT22;35657;51.204;-4.130;2022-07-22T01:21:31;19.00;99.90
49765;DHT22;35657;51.204;-4.130;2022-07-22T01:23:57;19.10;99.90
49765;DHT22;35657;51.204;-4.130;2022-07-22T01:26:23;19.20;99.90
49765;DHT22;35657;51.204;-4.130;2022-07-22T01:28:49;19.30;99.90
49765;DHT22;35657;51.204;-4.130;2022-07-22T01:31:14;19.30;99.90
49765;DHT22;35657;51.204;-4.130;2022-07-22T01:33:40;19.40;99.90
49765;DHT22;35657;51.204;-4.130;2022-07-22T01:36:06;19.30;99.90
49765;DHT22;35657;51.204;-4.130;2022-07-22T01:38:32;19.20;99.90
49765;DHT22;35657;51.204;-4.130;2022-07-22T01:40:58;19.10;99.90
49765;DHT22;35657;51.204;-4.130;2022-07-22T01:43:24;19.00;99.90
49765;DHT22;35657;51.204;-4.130;2022-07-22T01:45:51;19.00;99.90
49765;DHT22;35657;51.204;-4.130;2022-07-22T01:48:18;18.90;99.90
49765;DHT22;35657;51.204;-4.130;2022-07-22T01:50:44;18.90;99.90
49765;DHT22;35657;51.204;-4.130;2022-07-22T01:53:10;18.90;99.90
49765;DHT22;35657;51.204;-4.130;2022-07-22T01:55:36;18.90;99.90
49765;DHT22;35657;51.204;-4.130;2022-07-22T01:58:03;18.80;99.90
49765;DHT22;35657;51.204;-4.130;2022-07-22T02:00:30;18.90;99.90
49765;DHT22;35657;51.204;-4.130;2022-07-22T02:02:56;19.20;99.90
49765;DHT22;35657;51.204;-4.130;2022-07-22T02:05:22;19.20;99.90
49765;DHT22;35657;51.204;-4.130;2022-07-22T02:07:48;19.20;99.90
49765;DHT22;35657;51.204;-4.130;2022-07-22T02:10:13;19.20;99.90
49765;DHT22;35657;51.204;-4.130;2022-07-22T02:12:39;19.20;99.90
49765;DHT22;35657;51.204;-4.130;2022-07-22T02:15:06;19.10;99.90
49765;DHT22;35657;51.204;-4.130;2022-07-22T02:17:35;18.90;99.90
49765;DHT22;35657;51.204;-4.130;2022-07-22T02:20:02;18.80;99.90
49765;DHT22;35657;51.204;-4.130;2022-07-22T02:22:28;18.80;99.90
49765;DHT22;35657;51.204;-4.130;2022-07-22T02:24:54;18.80;99.90
49765;DHT22;35657;51.204;-4.130;2022-07-22T02:27:20;18.80;99.90
49765;DHT22;35657;51.204;-4.130;2022-07-22T02:29:46;18.80;99.90
49765;DHT22;35657;51.204;-4.130;2022-07-22T02:32:11;18.80;99.90
49765;DHT22;35657;51.204;-4.130;2022-07-22T02:34:37;18.80;99.90
49765;DHT22;35657;51.204;-4.130;2022-07-22T02:37:03;18.70;99.90
49765;DHT22;35657;51.204;-4.130;2022-07-22T02:39:29;18.80;99.90
49765;DHT22;35657;51.204;-4.130;2022-07-22T02:41:54;18.70;99.90
49765;DHT22;35657;51.204;-4.130;2022-07-22T02:44:20;18.60;99.90
49765;DHT22;35657;51.204;-4.130;2022-07-22T02:46:46;18.70;99.90
49765;DHT22;35657;51.204;-4.130;2022-07-22T02:49:12;18.70;99.90
49765;DHT22;35657;51.204;-4.130;2022-07-22T02:51:38;18.80;99.90
49765;DHT22;35657;51.204;-4.130;2022-07-22T02:54:03;18.70;99.90
49765;DHT22;35657;51.204;-4.130;2022-07-22T02:56:29;18.70;99.90
49765;DHT22;35657;51.204;-4.130;2022-07-22T02:58:55;18.70;99.90
49765;DHT22;35657;51.204;-4.130;2022-07-22T03:01:21;18.70;99.90
49765;DHT22;35657;51.204;-4.130;2022-07-22T03:03:47;18.60;99.90
49765;DHT22;35657;51.204;-4.130;2022-07-22T03:06:13;18.60;99.90
49765;DHT22;35657;51.204;-4.130;2022-07-22T03:08:39;18.50;99.90
49765;DHT22;35657;51.204;-4.130;2022-07-22T03:11:05;18.50;99.90
49765;DHT22;35657;51.204;-4.130;2022-07-22T03:13:31;18.40;99.90
49765;DHT22;35657;51.204;-4.130;2022-07-22T03:15:57;18.50;99.90
49765;DHT22;35657;51.204;-4.130;2022-07-22T03:18:22;18.60;99.90
49765;DHT22;35657;51.204;-4.130;2022-07-22T03:20:48;18.70;99.90
49765;DHT22;35657;51.204;-4.130;2022-07-22T03:23:14;18.70;99.90
49765;DHT22;35657;51.204;-4.130;2022-07-22T03:25:40;18.70;99.90
49765;DHT22;35657;51.204;-4.130;2022-07-22T03:28:06;18.80;99.90
49765;DHT22;35657;51.204;-4.130;2022-07-22T03:30:33;18.80;99.90
49765;DHT22;35657;51.204;-4.130;2022-07-22T03:32:58;18.70;99.90
49765;DHT22;35657;51.204;-4.130;2022-07-22T03:35:24;18.60;99.90
49765;DHT22;35657;51.204;-4.130;2022-07-22T03:37:50;18.60;99.90
49765;DHT22;35657;51.204;-4.130;2022-07-22T03:40:16;18.60;99.90
49765;DHT22;35657;51.204;-4.130;2022-07-22T03:42:42;18.60;99.90
49765;DHT22;35657;51.204;-4.130;2022-07-22T03:45:09;18.50;99.90
49765;DHT22;35657;51.204;-4.130;2022-07-22T03:47:35;18.60;99.90
49765;DHT22;35657;51.204;-4.130;2022-07-22T03:50:01;18.50;99.90
49765;DHT22;35657;51.204;-4.130;2022-07-22T03:52:30;18.50;99.90
49765;DHT22;35657;51.204;-4.130;2022-07-22T03:54:56;18.50;99.90
49765;DHT22;35657;51.204;-4.130;2022-07-22T03:57:22;18.60;99.90
49765;DHT22;35657;51.204;-4.130;2022-07-22T03:59:48;18.70;99.90
49765;DHT22;35657;51.204;-4.130;2022-07-22T04:02:14;18.80;99.90
49765;DHT22;35657;51.204;-4.130;2022-07-22T04:04:39;18.90;99.90
49765;DHT22;35657;51.204;-4.130;2022-07-22T04:07:05;19.00;99.90
49765;DHT22;35657;51.204;-4.130;2022-07-22T04:09:31;19.10;99.90
49765;DHT22;35657;51.204;-4.130;2022-07-22T04:11:56;19.00;99.90
49765;DHT22;35657;51.204;-4.130;2022-07-22T04:14:22;18.80;99.90
49765;DHT22;35657;51.204;-4.130;2022-07-22T04:16:48;18.80;99.90
49765;DHT22;35657;51.204;-4.130;2022-07-22T04:19:14;18.70;99.90
49765;DHT22;35657;51.204;-4.130;2022-07-22T04:21:41;18.60;99.90
49765;DHT22;35657;51.204;-4.130;2022-07-22T04:24:07;18.70;99.90
49765;DHT22;35657;51.204;-4.130;2022-07-22T04:26:33;18.60;99.90
49765;DHT22;35657;51.204;-4.130;2022-07-22T04:28:59;18.60;99.90
49765;DHT22;35657;51.204;-4.130;2022-07-22T04:31:25;18.60;99.90
49765;DHT22;35657;51.204;-4.130;2022-07-22T04:33:50;18.60;99.90
49765;DHT22;35657;51.204;-4.130;2022-07-22T04:36:16;18.60;99.90
49765;DHT22;35657;51.204;-4.130;2022-07-22T04:38:42;18.80;99.90
49765;DHT22;35657;51.204;-4.130;2022-07-22T04:41:08;18.80;99.90
49765;DHT22;35657;51.204;-4.130;2022-07-22T04:43:33;18.90;99.90
49765;DHT22;35657;51.204;-4.130;2022-07-22T04:45:59;19.00;99.90
49765;DHT22;35657;51.204;-4.130;2022-07-22T04:48:25;19.00;99.90
49765;DHT22;35657;51.204;-4.130;2022-07-22T04:50:50;18.90;99.90
49765;DHT22;35657;51.204;-4.130;2022-07-22T04:53:16;18.80;99.90
49765;DHT22;35657;51.204;-4.130;2022-07-22T04:55:42;18.70;99.90
49765;DHT22;35657;51.204;-4.130;2022-07-22T04:58:08;18.60;99.90
49765;DHT22;35657;51.204;-4.130;2022-07-22T05:00:34;18.60;99.90
49765;DHT22;35657;51.204;-4.130;2022-07-22T05:02:59;18.60;99.90
49765;DHT22;35657;51.204;-4.130;2022-07-22T05:05:25;18.50;99.90
49765;DHT22;35657;51.204;-4.130;2022-07-22T05:07:51;18.50;99.90
49765;DHT22;35657;51.204;-4.130;2022-07-22T05:10:17;18.50;99.90
49765;DHT22;35657;51.204;-4.130;2022-07-22T05:12:42;18.50;99.90
49765;DHT22;35657;51.204;-4.130;2022-07-22T05:15:08;18.50;99.90
49765;DHT22;35657;51.204;-4.130;2022-07-22T05:17:34;18.60;99.90
49765;DHT22;35657;51.204;-4.130;2022-07-22T05:20:04;18.70;99.90
49765;DHT22;35657;51.204;-4.130;2022-07-22T05:22:30;18.80;99.90
49765;DHT22;35657;51.204;-4.130;2022-07-22T05:24:56;18.80;99.90
49765;DHT22;35657;51.204;-4.130;2022-07-22T05:27:22;18.90;99.90
49765;DHT22;35657;51.204;-4.130;2022-07-22T05:29:47;18.80;99.90
49765;DHT22;35657;51.204;-4.130;2022-07-22T05:32:14;18.60;99.90
49765;DHT22;35657;51.204;-4.130;2022-07-22T05:34:39;18.60;99.90
49765;DHT22;35657;51.204;-4.130;2022-07-22T05:37:05;18.50;99.90
49765;DHT22;35657;51.204;-4.130;2022-07-22T05:39:31;18.40;99.90
49765;DHT22;35657;51.204;-4.130;2022-07-22T05:41:56;18.40;99.90
49765;DHT22;35657;51.204;-4.130;2022-07-22T05:44:22;18.30;99.90
49765;DHT22;35657;51.204;-4.130;2022-07-22T05:46:48;18.40;99.90
49765;DHT22;35657;51.204;-4.130;2022-07-22T05:49:13;18.40;99.90
49765;DHT22;35657;51.204;-4.130;2022-07-22T05:51:39;18.30;99.90
49765;DHT22;35657;51.204;-4.130;2022-07-22T05:54:05;18.40;99.90
49765;DHT22;35657;51.204;-4.130;2022-07-22T05:56:30;18.40;99.90
49765;DHT22;35657;51.204;-4.130;2022-07-22T05:58:56;18.50;99.90
49765;DHT22;35657;51.204;-4.130;2022-07-22T06:01:22;18.60;99.90
49765;DHT22;35657;51.204;-4.130;2022-07-22T06:03:48;18.60;99.90
49765;DHT22;35657;51.204;-4.130;2022-07-22T06:06:14;18.70;99.90
49765;DHT22;35657;51.204;-4.130;2022-07-22T06:08:40;18.60;99.90
49765;DHT22;35657;51.204;-4.130;2022-07-22T06:11:06;18.60;99.90
49765;DHT22;35657;51.204;-4.130;2022-07-22T06:13:32;18.50;99.90
49765;DHT22;35657;51.204;-4.130;2022-07-22T06:15:58;18.50;99.90
49765;DHT22;35657;51.204;-4.130;2022-07-22T06:18:24;18.50;99.90
49765;DHT22;35657;51.204;-4.130;2022-07-22T06:20:49;18.50;99.90
49765;DHT22;35657;51.204;-4.130;2022-07-22T06:23:15;18.60;99.90
49765;DHT22;35657;51.204;-4.130;2022-07-22T06:25:41;18.60;99.90
49765;DHT22;35657;51.204;-4.130;2022-07-22T06:28:07;18.60;99.90
49765;DHT22;35657;51.204;-4.130;2022-07-22T06:30:33;18.60;99.90
49765;DHT22;35657;51.204;-4.130;2022-07-22T06:32:59;18.70;99.90
49765;DHT22;35657;51.204;-4.130;2022-07-22T06:35:25;18.90;99.90
49765;DHT22;35657;51.204;-4.130;2022-07-22T06:37:52;19.10;99.90
49765;DHT22;35657;51.204;-4.130;2022-07-22T06:40:17;19.20;99.90
49765;DHT22;35657;51.204;-4.130;2022-07-22T06:42:44;19.20;99.90
49765;DHT22;35657;51.204;-4.130;2022-07-22T06:45:10;19.40;99.90
49765;DHT22;35657;51.204;-4.130;2022-07-22T06:47:36;19.40;99.90
49765;DHT22;35657;51.204;-4.130;2022-07-22T06:50:05;19.30;99.90
49765;DHT22;35657;51.204;-4.130;2022-07-22T06:52:32;19.20;99.90
49765;DHT22;35657;51.204;-4.130;2022-07-22T06:54:57;19.20;99.90
49765;DHT22;35657;51.204;-4.130;2022-07-22T06:57:23;19.30;99.90
49765;DHT22;35657;51.204;-4.130;2022-07-22T06:59:49;19.30;99.90
49765;DHT22;35657;51.204;-4.130;2022-07-22T07:02:15;19.30;99.90
49765;DHT22;35657;51.204;-4.130;2022-07-22T07:04:41;19.10;99.90
49765;DHT22;35657;51.204;-4.130;2022-07-22T07:07:08;19.10;99.90
49765;DHT22;35657;51.204;-4.130;2022-07-22T07:09:34;19.10;99.90
49765;DHT22;35657;51.204;-4.130;2022-07-22T07:12:00;19.10;99.90
49765;DHT22;35657;51.204;-4.130;2022-07-22T07:14:26;19.30;99.90
49765;DHT22;35657;51.204;-4.130;2022-07-22T07:16:51;19.50;99.90
49765;DHT22;35657;51.204;-4.130;2022-07-22T07:19:17;19.50;99.90
49765;DHT22;35657;51.204;-4.130;2022-07-22T07:21:45;19.50;99.90
49765;DHT22;35657;51.204;-4.130;2022-07-22T07:24:11;19.50;99.90
49765;DHT22;35657;51.204;-4.130;2022-07-22T07:26:37;19.40;99.90
49765;DHT22;35657;51.204;-4.130;2022-07-22T07:29:03;19.50;99.90
49765;DHT22;35657;51.204;-4.130;2022-07-22T07:31:28;19.60;99.90
49765;DHT22;35657;51.204;-4.130;2022-07-22T07:33:54;19.60;99.90
49765;DHT22;35657;51.204;-4.130;2022-07-22T07:36:20;19.60;99.90
49765;DHT22;35657;51.204;-4.130;2022-07-22T07:38:46;19.60;99.90
49765;DHT22;35657;51.204;-4.130;2022-07-22T07:41:12;19.50;99.90
49765;DHT22;35657;51.204;-4.130;2022-07-22T07:43:37;19.60;99.90
49765;DHT22;35657;51.204;-4.130;2022-07-22T07:46:03;19.60;99.90
49765;DHT22;35657;51.204;-4.130;2022-07-22T07:48:29;19.60;99.90
49765;DHT22;35657;51.204;-4.130;2022-07-22T07:50:55;19.60;99.90
49765;DHT22;35657;51.204;-4.130;2022-07-22T07:53:20;19.50;99.90
49765;DHT22;35657;51.204;-4.130;2022-07-22T07:55:46;19.60;99.90
49765;DHT22;35657;51.204;-4.130;2022-07-22T07:58:12;19.80;99.90
49765;DHT22;35657;51.204;-4.130;2022-07-22T08:00:38;19.80;99.90
49765;DHT22;35657;51.204;-4.130;2022-07-22T08:03:05;20.00;99.90
49765;DHT22;35657;51.204;-4.130;2022-07-22T08:05:31;19.90;99.90
49765;DHT22;35657;51.204;-4.130;2022-07-22T08:07:57;19.80;99.90
49765;DHT22;35657;51.204;-4.130;2022-07-22T08:10:22;19.50;99.90
49765;DHT22;35657;51.204;-4.130;2022-07-22T08:12:49;19.50;99.90
49765;DHT22;35657;51.204;-4.130;2022-07-22T08:15:15;19.60;99.90
49765;DHT22;35657;51.204;-4.130;2022-07-22T08:17:40;19.50;99.90
49765;DHT22;35657;51.204;-4.130;2022-07-22T08:20:08;19.60;99.90
49765;DHT22;35657;51.204;-4.130;2022-07-22T08:22:34;19.60;99.90
49765;DHT22;35657;51.204;-4.130;2022-07-22T08:25:00;19.70;99.90
49765;DHT22;35657;51.204;-4.130;2022-07-22T08:27:26;19.50;99.90
49765;DHT22;35657;51.204;-4.130;2022-07-22T08:29:51;19.30;99.90
49765;DHT22;35657;51.204;-4.130;2022-07-22T08:32:17;19.30;99.90
49765;DHT22;35657;51.204;-4.130;2022-07-22T08:34:43;19.30;99.90
49765;DHT22;35657;51.204;-4.130;2022-07-22T08:37:09;19.40;99.90
49765;DHT22;35657;51.204;-4.130;2022-07-22T08:39:35;19.60;99.90
49765;DHT22;35657;51.204;-4.130;2022-07-22T08:42:02;19.60;99.90
49765;DHT22;35657;51.204;-4.130;2022-07-22T08:44:31;19.80;99.90
49765;DHT22;35657;51.204;-4.130;2022-07-22T08:46:59;19.70;99.90
49765;DHT22;35657;51.204;-4.130;2022-07-22T08:49:25;19.90;99.90
49765;DHT22;35657;51.204;-4.130;2022-07-22T08:51:51;20.10;99.90
49765;DHT22;35657;51.204;-4.130;2022-07-22T08:54:16;20.20;99.90
49765;DHT22;35657;51.204;-4.130;2022-07-22T08:56:49;20.20;99.90
49765;DHT22;35657;51.204;-4.130;2022-07-22T08:59:15;20.30;99.90
49765;DHT22;35657;51.204;-4.130;2022-07-22T09:02:04;20.40;99.90
49765;DHT22;35657;51.204;-4.130;2022-07-22T09:04:31;20.30;99.90
49765;DHT22;35657;51.204;-4.130;2022-07-22T09:06:57;20.40;99.90
49765;DHT22;35657;51.204;-4.130;2022-07-22T09:09:32;20.40;99.90
49765;DHT22;35657;51.204;-4.130;2022-07-22T09:12:08;20.60;99.90
49765;DHT22;35657;51.204;-4.130;2022-07-22T09:14:44;20.90;99.90
49765;DHT22;35657;51.204;-4.130;2022-07-22T09:17:32;21.20;99.90
49765;DHT22;35657;51.204;-4.130;2022-07-22T09:20:03;21.40;99.90
49765;DHT22;35657;51.204;-4.130;2022-07-22T09:24:59;21.30;99.90
49765;DHT22;35657;51.204;-4.130;2022-07-22T09:27:28;21.50;99.90
49765;DHT22;35657;51.204;-4.130;2022-07-22T09:29:54;21.70;99.90
49765;DHT22;35657;51.204;-4.130;2022-07-22T09:32:22;21.20;99.90
49765;DHT22;35657;51.204;-4.130;2022-07-22T09:34:47;21.50;99.90
49765;DHT22;35657;51.204;-4.130;2022-07-22T09:37:13;21.70;99.90
49765;DHT22;35657;51.204;-4.130;2022-07-22T09:39:39;21.90;99.90
49765;DHT22;35657;51.204;-4.130;2022-07-22T09:42:07;22.30;99.90
49765;DHT22;35657;51.204;-4.130;2022-07-22T09:44:33;22.60;99.90
49765;DHT22;35657;51.204;-4.130;2022-07-22T09:46:59;22.70;99.90
49765;DHT22;35657;51.204;-4.130;2022-07-22T09:49:36;22.90;99.90
49765;DHT22;35657;51.204;-4.130;2022-07-22T09:52:06;22.90;99.90
49765;DHT22;35657;51.204;-4.130;2022-07-22T09:54:32;22.70;99.90
49765;DHT22;35657;51.204;-4.130;2022-07-22T09:56:58;22.80;99.90
49765;DHT22;35657;51.204;-4.130;2022-07-22T09:59:24;22.80;99.90
49765;DHT22;35657;51.204;-4.130;2022-07-22T10:01:54;22.70;99.90
49765;DHT22;35657;51.204;-4.130;2022-07-22T10:04:20;22.40;99.90
49765;DHT22;35657;51.204;-4.130;2022-07-22T10:06:48;22.10;99.90
49765;DHT22;35657;51.204;-4.130;2022-07-22T10:09:15;22.00;99.90
49765;DHT22;35657;51.204;-4.130;2022-07-22T10:11:42;21.90;99.90
49765;DHT22;35657;51.204;-4.130;2022-07-22T10:14:14;22.00;99.90
49765;DHT22;35657;51.204;-4.130;2022-07-22T10:16:40;21.90;99.90
49765;DHT22;35657;51.204;-4.130;2022-07-22T10:19:06;21.90;99.90
49765;DHT22;35657;51.204;-4.130;2022-07-22T10:21:34;21.70;99.90
49765;DHT22;35657;51.204;-4.130;2022-07-22T10:26:49;22.20;99.90
49765;DHT22;35657;51.204;-4.130;2022-07-22T10:29:27;22.50;99.90
49765;DHT22;35657;51.204;-4.130;2022-07-22T10:40:21;21.80;99.90
49765;DHT22;35657;51.204;-4.130;2022-07-22T10:43:04;21.80;99.90
49765;DHT22;35657;51.204;-4.130;2022-07-22T10:45:32;21.90;99.90
49765;DHT22;35657;51.204;-4.130;2022-07-22T10:47:59;22.10;99.90
49765;DHT22;35657;51.204;-4.130;2022-07-22T10:53:04;22.60;99.90
49765;DHT22;35657;51.204;-4.130;2022-07-22T10:55:31;22.70;99.90
49765;DHT22;35657;51.204;-4.130;2022-07-22T10:57:57;22.70;99.90
49765;DHT22;35657;51.204;-4.130;2022-07-22T11:00:23;22.30;99.90
49765;DHT22;35657;51.204;-4.130;2022-07-22T11:02:49;22.60;99.90
49765;DHT22;35657;51.204;-4.130;2022-07-22T11:05:24;22.60;99.90
49765;DHT22;35657;51.204;-4.130;2022-07-22T11:07:51;23.10;99.90
49765;DHT22;35657;51.204;-4.130;2022-07-22T11:10:18;23.20;99.90
49765;DHT22;35657;51.204;-4.130;2022-07-22T11:12:46;22.70;99.90
49765;DHT22;35657;51.204;-4.130;2022-07-22T11:15:12;22.70;99.90
49765;DHT22;35657;51.204;-4.130;2022-07-22T11:17:39;23.10;99.90
49765;DHT22;35657;51.204;-4.130;2022-07-22T11:20:07;23.40;99.90
49765;DHT22;35657;51.204;-4.130;2022-07-22T11:22:33;23.40;99.90
49765;DHT22;35657;51.204;-4.130;2022-07-22T11:25:07;23.50;99.90
49765;DHT22;35657;51.204;-4.130;2022-07-22T11:27:34;23.60;99.90
49765;DHT22;35657;51.204;-4.130;2022-07-22T11:30:00;23.50;99.90
49765;DHT22;35657;51.204;-4.130;2022-07-22T11:32:27;23.40;99.90
49765;DHT22;35657;51.204;-4.130;2022-07-22T11:34:56;23.50;99.90
49765;DHT22;35657;51.204;-4.130;2022-07-22T11:37:24;23.30;99.90
49765;DHT22;35657;51.204;-4.130;2022-07-22T11:40:02;23.40;99.90
49765;DHT22;35657;51.204;-4.130;2022-07-22T11:42:28;23.70;99.90
49765;DHT22;35657;51.204;-4.130;2022-07-22T11:44:54;23.70;99.90
49765;DHT22;35657;51.204;-4.130;2022-07-22T11:47:20;23.20;99.90
49765;DHT22;35657;51.204;-4.130;2022-07-22T11:49:47;23.00;99.90
49765;DHT22;35657;51.204;-4.130;2022-07-22T11:52:16;23.00;99.90
49765;DHT22;35657;51.204;-4.130;2022-07-22T11:54:43;23.30;99.90
49765;DHT22;35657;51.204;-4.130;2022-07-22T11:57:10;23.40;99.90
49765;DHT22;35657;51.204;-4.130;2022-07-22T11:59:36;23.40;99.90
49765;DHT22;35657;51.204;-4.130;2022-07-22T12:02:03;23.50;99.90
49765;DHT22;35657;51.204;-4.130;2022-07-22T12:04:31;23.00;99.90
49765;DHT22;35657;51.204;-4.130;2022-07-22T12:06:58;23.40;99.90
49765;DHT22;35657;51.204;-4.130;2022-07-22T12:09:30;23.50;99.90
49765;DHT22;35657;51.204;-4.130;2022-07-22T12:11:57;23.20;99.90
49765;DHT22;35657;51.204;-4.130;2022-07-22T12:14:25;23.40;99.90
49765;DHT22;35657;51.204;-4.130;2022-07-22T12:17:04;23.60;99.90
49765;DHT22;35657;51.204;-4.130;2022-07-22T12:19:32;23.20;99.90
49765;DHT22;35657;51.204;-4.130;2022-07-22T12:22:02;23.80;99.90
49765;DHT22;35657;51.204;-4.130;2022-07-22T12:24:30;23.60;99.90
49765;DHT22;35657;51.204;-4.130;2022-07-22T12:26:58;23.70;99.90
49765;DHT22;35657;51.204;-4.130;2022-07-22T12:29:30;23.50;99.90
49765;DHT22;35657;51.204;-4.130;2022-07-22T12:32:04;22.90;99.90
49765;DHT22;35657;51.204;-4.130;2022-07-22T12:34:45;23.00;99.90
49765;DHT22;35657;51.204;-4.130;2022-07-22T12:37:20;23.00;99.90
49765;DHT22;35657;51.204;-4.130;2022-07-22T12:40:03;23.30;99.90
49765;DHT22;35657;51.204;-4.130;2022-07-22T12:42:38;22.90;99.90
49765;DHT22;35657;51.204;-4.130;2022-07-22T12:45:13;22.80;99.90
49765;DHT22;35657;51.204;-4.130;2022-07-22T12:53:04;22.90;99.90
49765;DHT22;35657;51.204;-4.130;2022-07-22T12:55:38;21.70;99.90
49765;DHT22;35657;51.204;-4.130;2022-07-22T12:58:05;21.60;99.90
49765;DHT22;35657;51.204;-4.130;2022-07-22T13:00:36;21.40;99.90
49765;DHT22;35657;51.204;-4.130;2022-07-22T13:03:03;21.20;99.90
49765;DHT22;35657;51.204;-4.130;2022-07-22T13:05:29;21.10;99.90
49765;DHT22;35657;51.204;-4.130;2022-07-22T13:07:54;20.60;99.90
49765;DHT22;35657;51.204;-4.130;2022-07-22T13:10:24;20.40;99.90
49765;DHT22;35657;51.204;-4.130;2022-07-22T13:12:51;20.40;99.90
49765;DHT22;35657;51.204;-4.130;2022-07-22T13:15:18;20.40;99.90
49765;DHT22;35657;51.204;-4.130;2022-07-22T13:17:45;20.50;99.90
49765;DHT22;35657;51.204;-4.130;2022-07-22T13:20:12;20.60;99.90
49765;DHT22;35657;51.204;-4.130;2022-07-22T13:22:39;20.20;99.90
49765;DHT22;35657;51.204;-4.130;2022-07-22T13:25:05;20.60;99.90
49765;DHT22;35657;51.204;-4.130;2022-07-22T13:27:31;20.40;99.90
49765;DHT22;35657;51.204;-4.130;2022-07-22T13:29:57;20.60;99.90
49765;DHT22;35657;51.204;-4.130;2022-07-22T13:32:23;20.30;99.90
49765;DHT22;35657;51.204;-4.130;2022-07-22T13:34:49;20.30;99.90
49765;DHT22;35657;51.204;-4.130;2022-07-22T13:37:14;20.20;99.90
49765;DHT22;35657;51.204;-4.130;2022-07-22T13:39:40;20.30;99.90
49765;DHT22;35657;51.204;-4.130;2022-07-22T13:42:07;20.20;99.90
49765;DHT22;35657;51.204;-4.130;2022-07-22T13:44:33;20.40;99.90
49765;DHT22;35657;51.204;-4.130;2022-07-22T13:47:02;20.00;99.90
49765;DHT22;35657;51.204;-4.130;2022-07-22T13:49:28;20.00;99.90
49765;DHT22;35657;51.204;-4.130;2022-07-22T13:51:53;20.10;99.90
49765;DHT22;35657;51.204;-4.130;2022-07-22T13:54:20;20.20;99.90
49765;DHT22;35657;51.204;-4.130;2022-07-22T13:56:46;20.20;99.90
49765;DHT22;35657;51.204;-4.130;2022-07-22T13:59:15;20.40;99.90
49765;DHT22;35657;51.204;-4.130;2022-07-22T14:01:41;20.30;99.90
49765;DHT22;35657;51.204;-4.130;2022-07-22T14:04:07;20.40;99.90
49765;DHT22;35657;51.204;-4.130;2022-07-22T14:06:33;20.20;99.90
49765;DHT22;35657;51.204;-4.130;2022-07-22T14:09:00;20.50;99.90
49765;DHT22;35657;51.204;-4.130;2022-07-22T14:11:25;20.30;99.90
49765;DHT22;35657;51.204;-4.130;2022-07-22T14:13:51;20.30;99.90
49765;DHT22;35657;51.204;-4.130;2022-07-22T14:16:17;20.40;99.90
49765;DHT22;35657;51.204;-4.130;2022-07-22T14:19:06;20.80;99.90
49765;DHT22;35657;51.204;-4.130;2022-07-22T14:21:32;20.70;99.90
49765;DHT22;35657;51.204;-4.130;2022-07-22T14:23:58;20.40;99.90
49765;DHT22;35657;51.204;-4.130;2022-07-22T14:26:24;20.00;99.90
49765;DHT22;35657;51.204;-4.130;2022-07-22T14:28:50;20.50;99.90
49765;DHT22;35657;51.204;-4.130;2022-07-22T14:31:17;20.90;99.90
49765;DHT22;35657;51.204;-4.130;2022-07-22T14:33:42;21.30;99.90
49765;DHT22;35657;51.204;-4.130;2022-07-22T14:36:08;21.90;99.90
49765;DHT22;35657;51.204;-4.130;2022-07-22T14:38:34;22.00;99.90
49765;DHT22;35657;51.204;-4.130;2022-07-22T14:41:00;22.10;99.90
49765;DHT22;35657;51.204;-4.130;2022-07-22T14:43:26;21.60;99.90
49765;DHT22;35657;51.204;-4.130;2022-07-22T14:45:52;21.70;99.90
49765;DHT22;35657;51.204;-4.130;2022-07-22T14:48:17;20.80;99.90
49765;DHT22;35657;51.204;-4.130;2022-07-22T14:50:43;20.40;99.90
49765;DHT22;35657;51.204;-4.130;2022-07-22T14:53:09;20.60;99.90
49765;DHT22;35657;51.204;-4.130;2022-07-22T14:55:34;20.60;99.90
49765;DHT22;35657;51.204;-4.130;2022-07-22T14:58:00;21.20;99.90
49765;DHT22;35657;51.204;-4.130;2022-07-22T15:00:26;21.10;99.90
49765;DHT22;35657;51.204;-4.130;2022-07-22T15:02:52;21.30;99.90
49765;DHT22;35657;51.204;-4.130;2022-07-22T15:05:17;21.20;99.90
49765;DHT22;35657;51.204;-4.130;2022-07-22T15:07:43;21.00;99.90
49765;DHT22;35657;51.204;-4.130;2022-07-22T15:10:09;21.20;99.90
49765;DHT22;35657;51.204;-4.130;2022-07-22T15:12:36;20.80;99.90
49765;DHT22;35657;51.204;-4.130;2022-07-22T15:15:02;20.70;99.90
49765;DHT22;35657;51.204;-4.130;2022-07-22T15:17:28;21.50;99.90
49765;DHT22;35657;51.204;-4.130;2022-07-22T15:19:53;22.20;99.90
49765;DHT22;35657;51.204;-4.130;2022-07-22T15:22:19;22.50;99.90
49765;DHT22;35657;51.204;-4.130;2022-07-22T15:24:47;22.50;99.90
49765;DHT22;35657;51.204;-4.130;2022-07-22T15:27:12;22.50;99.90
49765;DHT22;35657;51.204;-4.130;2022-07-22T15:29:38;22.30;99.90
49765;DHT22;35657;51.204;-4.130;2022-07-22T15:32:04;22.20;99.90
49765;DHT22;35657;51.204;-4.130;2022-07-22T15:34:32;22.30;99.90